Hlavní strana
METAR-TAF:

METAR-TAF

Letiště :

Vardø, Norsko

zeměpisná šířka: 70-21N, zeměpisná délka: 031-03E, výška: 12 m

Aktuální stav počasí

Zpráva byla vytvořena před 13 hodinami a 24 minutami, v 15:50 UTC
Jižní vítr 11 kt, proměnlivý mezi jihovýchodním a jihozápadním
Teplota 18°C
Vlhkost vzduchu 73%
Tlak 1002 hPa
Viditelnost 10 km a více
Oblačno až skoro zataženo ve výšce 6000 ft

METAR: ENSS 171550Z 18011KT 140V220 9999 BKN060 18/13 Q1002 RMK WIND 500FT 20019KT

Čas: 07:14 (05:14 UTC)


TAF: chybějící

Stav a předpovědi počasí z více než 4 000 letišť (zprávy METAR a TAF).

Červené a žluté tečky na mapě představují dostupné meteorologické stanice.

Když kurzor umístíte na tečku, zobrazí se název stanice.

Pak kliknutím zobrazíte stav a předpověď počasí.

Chcete-li změnit mapu, kliknutím na zelené tlačítko se znaménkem +mapu přiblížíte, kliknutím na zelené tlačítko se znaménkem – mapu oddálíte a kliknutím na zelené šipky přejdete na sousední mapy.


METAR-TAF: